Quincy Regional Baldwin Field
KUIN : rendu visible

Aérodrome :











RETROUVEZ-NOUS SUR...

 
LOGIN :

S'inscrire | Disclaimer

   EN    FR    IT 

 









Légende :    VFR   VFR Marginal   IFR   IFR Intensif   IFR Très Intensif
Visi : 
Plafond : 
>= 8 km
>= 3000ft
5 à 8 km
1000 à 3000 ft
1500m à 5 km
500 à 1000 ft
800 à 1500m
200 à 500 ft
< 800m
< 200 ft
Symboles :   Orages  Brouillard  Fortes neiges  Fortes précipitations  Vent > 20 kt






- Altitude de l'aérodrome : 768 ft
- Code IATA : UIN


KUIN - Quincy Regional Baldwin Field

DERNIER METAR :
  • 190254Z AUTO 30021G34KT 10SM CLR M09/M15 A3024 RMK AO2 PK WND 30034/0247 SLP250 T10941150 51016

METARs EXPIRÉS :
  • 190154Z AUTO 29021G33KT 10SM CLR M08/M14 A3023 RMK AO2 PK WND 28037/0117 SLP244 T10831139
  • 190054Z AUTO 29019G24KT 10SM CLR M07/M13 A3021 RMK AO2 PK WND 27029/0000 SLP239 T10721128

TAF KUIN
Valide du 19 à 00h jusqu'au 20 à 00h UTC


182324Z 1900/1924 29018G28KT P6SM FEW030
FM191500 31015G25KT P6SM BKN025



MET'MAP, la Météo Aéronautique d'un coup d'oeil ! - Copyright ORBIFLY Décembre 2007 - Disclaimer

ORBIFLY MET'MAP TEAM :

Programmation & Développement : Alexandra Zaïnal
Sur une idée originale de : Baudouin d'Aumeries
Assistance à la programmation : Marc-Olivier Méhu
Soutien technique & logistique : Manuel Goepfert

Contact : metmap@orbifly.com




SOURCES & CREDITS :

   NOAA       Earth
Advisory